PAWGPAKT

Guest
Details From PAWG - WRANGELL
To PAKT - KETCHIKAN INTL
Flight Number -
Tags generated
Created
Modified
Stats Distance 74 nm / 138 km
Max Altitude 2,000 ft / 610 m
Waypoints 3
Social Downloads 0
Likes 0
Share VATSIM

Download

Looking for another format? Having issues loading an existing format? Contact us
Advertisement - Login to hide

Notes

Basic altitude profile: - Ascent Rate: 2500ft/min - Ascent Speed: 250kts - Cruise Altitude: 35000ft - Cruise Speed: 420kts - Descent Rate: 1500ft/min - Descent Speed: 250kts Options: - Use NATs: yes - Use PACOTS: yes - Use low airways: yes - Use high airways: yes

Route

PAWG GESTI PAKT

ID Type Via Altitude Latitude Longitude Leg Dist Tot Dist Heading (true) Name
O PAWG APT - 0 ft / 0 m 56.48432˚ -132.36983˚ - 0 nm - WRANGELL
GESTI FIX - 2,000 ft / 610 m 55.43263˚ -131.96400˚ 64 nm 64 nm 168° / 168° -
O PAKT APT - 0 ft / 0 m 55.35554˚ -131.71374˚ 9 nm 74 nm 118° / 119° KETCHIKAN INTL

Altitude Profile

Advertisement - Login to hide

PAWG

Details ICAO PAWG (WRG)
Name WRANGELL
Region USA (Alaska)
Timezone America/Juneau (UTC-8.0)
Stats Elevation 44 ft / 13 m (AMSL)
Location 56.484324° -132.369832°
Runways 1
Magnetic Variation 18.698° E

METAR

PAWG 201556Z 00000KT 10SM -RA SCT055 BKN095 OVC120 10/08 A2990

Decode

TAF

TAF PAWG 201134Z 2012/2112 25005KT P6SM VCSH OVC080 FM201800 13008KT P6SM VCSH SCT015 BKN040 OVC060 FM210000 12009KT 6SM -RA BR OVC040 AMD LTD TO CLD VIS AND WIND 2012/2015

Decode

Departure Runways

ID Width Length Bearing (true) Bearing (mag) Surface Threshold Offset Overrun Length
10 150 ft / 46 m 5,983 ft / 1,824 m 121.43° 102.73° Asphalt 0 ft / 0 m 0 ft / 0 m
28 150 ft / 46 m 5,983 ft / 1,824 m 301.45° 282.75° Asphalt 0 ft / 0 m 0 ft / 0 m

PAKT

Details ICAO PAKT (KTN)
Name KETCHIKAN INTL
Region USA (Alaska)
Timezone Unknown (UTC+0.0)
Stats Elevation 88 ft / 27 m (AMSL)
Location 55.355545° -131.713737°
Runways 1
Magnetic Variation 18.431° E

METAR

PAKT 201553Z 14009KT 10SM FEW012 FEW018 OVC026 10/08 A2994

Decode

TAF

PAKT 201134Z 2012/2112 15007KT P6SM VCSH BKN020 OVC060 FM201800 14010KT P6SM VCSH SCT040 OVC050 FM202100 14013G23KT P6SM -RA SCT015 OVC025 FM210300 14012KT P6SM -RA SCT025 BKN035 OVC050 WS020/16035KT AMD LTD TO CLD VIS AND WIND 2012/2015

Decode

Destination Runways

ID Width Length Bearing (true) Bearing (mag) Surface Threshold Offset Overrun Length
11 150 ft / 46 m 7,485 ft / 2,281 m 135.66° 117.23° Asphalt 0 ft / 0 m 200 ft / 61 m
29 150 ft / 46 m 7,485 ft / 2,281 m 315.68° 297.25° Asphalt 0 ft / 0 m 100 ft / 30 m

Approach Navaids

Runway Type Ident Frequency Range Bearing (true) Bearing (mag) Slope Elevation
11 Localiser IECH 109.30 MHz 18 nm / 33 km 135.69° 117.26° - 66 ft / 20 m (AMSL)
11 Glidescope IECH 109.30 MHz 10 nm / 19 km 135.67° 117.24° 3.61° 76 ft / 23 m (AMSL)
11 DME IECH 109.30 MHz 18 nm / 33 km - - - 98 ft / 30 m (AMSL)

Popular Alternatives